Time;durP1;ratioP1;P1;durP2;ratioP2;P2;SDS_P1;SDS_P2;PMS_P1;PMS_P2;Temp;Humidity;BMP_temperature;BMP_pressure;BME280_temperature;BME280_humidity;BME280_pressure;Samples;Min_cycle;Max_cycle;Signal;HPM_P1;HPM_P2
2023/09/16 00:01:33;;;;;;;8.35;4.45;;;;;;;;;;5055456;28;20125;-63
2023/09/16 00:03:59;;;;;;;6.82;5.55;;;;;;;;;;5048517;28;20557;-64
2023/09/16 00:06:25;;;;;;;5.85;4.70;;;;;;;;;;5069478;28;20260;-63
2023/09/16 00:08:51;;;;;;;6.05;4.30;;;;;;;;;;5054838;28;20249;-64
2023/09/16 00:11:18;;;;;;;8.45;5.30;;;;;;;;;;5056864;28;20635;-64
2023/09/16 00:13:44;;;;;;;5.68;4.43;;;;;;;;;;5049848;28;20056;-63
2023/09/16 00:16:12;;;;;;;6.05;4.90;;;;;;;;;;5041877;28;20048;-64
2023/09/16 00:18:39;;;;;;;6.13;4.72;;;;;;;;;;5055098;28;20048;-63
2023/09/16 00:21:05;;;;;;;5.85;4.43;;;;;;;;;;5055579;28;20191;-63
2023/09/16 00:23:31;;;;;;;7.25;4.72;;;;;;;;;;5062205;28;20193;-64
2023/09/16 00:25:58;;;;;;;6.53;4.63;;;;;;;;;;5045307;28;20307;-64
2023/09/16 00:28:27;;;;;;;8.55;4.45;;;;;;;;;;5060384;28;20105;-63
2023/09/16 00:30:53;;;;;;;7.25;4.45;;;;;;;;;;5062556;28;20036;-65
2023/09/16 00:33:19;;;;;;;5.30;4.13;;;;;;;;;;5059018;28;20134;-63
2023/09/16 00:35:45;;;;;;;6.47;4.85;;;;;;;;;;5051312;28;20113;-64
2023/09/16 00:38:15;;;;;;;7.40;4.30;;;;;;;;;;5041749;28;20116;-64
2023/09/16 00:40:41;;;;;;;5.75;4.40;;;;;;;;;;5040468;28;20715;-64
2023/09/16 00:43:07;;;;;;;7.47;4.82;;;;;;;;;;5025650;28;20267;-64
2023/09/16 00:45:34;;;;;;;6.47;4.82;;;;;;;;;;5049308;28;20050;-64
2023/09/16 00:48:00;;;;;;;5.85;4.60;;;;;;;;;;5047238;28;20037;-64
2023/09/16 00:50:27;;;;;;;9.35;5.07;;;;;;;;;;5049712;28;20062;-64
2023/09/16 00:52:59;;;;;;;5.53;4.20;;;;;;;;;;5049698;28;20400;-64
2023/09/16 00:55:26;;;;;;;7.35;4.65;;;;;;;;;;5048292;28;20048;-64
2023/09/16 00:57:54;;;;;;;6.32;4.70;;;;;;;;;;5047250;28;20044;-64
2023/09/16 01:00:21;;;;;;;7.57;5.10;;;;;;;;;;5056719;28;20317;-63
2023/09/16 01:02:47;;;;;;;5.97;4.63;;;;;;;;;;5055768;28;20045;-64
2023/09/16 01:05:17;;;;;;;7.07;5.10;;;;;;;;;;5059158;28;20458;-65
2023/09/16 01:07:45;;;;;;;7.72;5.68;;;;;;;;;;5060782;28;20492;-65
2023/09/16 01:10:13;;;;;;;7.18;5.07;;;;;;;;;;5065808;28;20357;-63
2023/09/16 01:12:40;;;;;;;7.90;5.32;;;;;;;;;;5064944;28;20044;-63
2023/09/16 01:15:06;;;;;;;6.28;5.10;;;;;;;;;;5059851;28;20051;-63
2023/09/16 01:17:40;;;;;;;7.57;5.57;;;;;;;;;;5055555;28;20415;-64
2023/09/16 01:20:15;;;;;;;8.18;5.63;;;;;;;;;;5064740;28;20506;-63
2023/09/16 01:22:45;;;;;;;7.15;5.68;;;;;;;;;;5048145;28;20641;-63
2023/09/16 01:25:17;;;;;;;7.47;5.70;;;;;;;;;;5062850;28;20181;-63
2023/09/16 01:27:44;;;;;;;7.13;5.10;;;;;;;;;;5074554;28;20335;-63
2023/09/16 01:30:10;;;;;;;7.38;5.25;;;;;;;;;;5063375;28;20045;-63
2023/09/16 01:32:58;;;;;;;6.75;5.68;;;;;;;;;;5058972;28;20055;-63
2023/09/16 01:35:24;;;;;;;7.82;6.10;;;;;;;;;;5058886;28;20520;-63
2023/09/16 01:37:51;;;;;;;7.50;5.35;;;;;;;;;;5039081;28;20715;-63
2023/09/16 01:40:18;;;;;;;7.65;5.32;;;;;;;;;;5050175;28;20040;-63
2023/09/16 01:42:45;;;;;;;8.52;4.82;;;;;;;;;;5058997;28;20051;-63
2023/09/16 01:45:11;;;;;;;6.72;5.03;;;;;;;;;;5043566;28;20124;-62
2023/09/16 01:47:38;;;;;;;6.30;5.30;;;;;;;;;;5050602;28;20142;-64
2023/09/16 01:50:04;;;;;;;6.80;5.10;;;;;;;;;;5056411;28;20123;-63
2023/09/16 01:52:31;;;;;;;8.32;5.22;;;;;;;;;;5044687;28;20040;-65
2023/09/16 01:54:57;;;;;;;7.45;5.65;;;;;;;;;;5050995;28;20074;-64
2023/09/16 01:57:23;;;;;;;6.45;5.43;;;;;;;;;;5054906;28;20048;-64
2023/09/16 01:59:49;;;;;;;7.43;5.45;;;;;;;;;;5042732;28;20033;-64
2023/09/16 02:02:15;;;;;;;6.63;5.55;;;;;;;;;;5044987;28;20114;-64
2023/09/16 02:04:44;;;;;;;6.70;4.95;;;;;;;;;;5044889;28;20064;-64
2023/09/16 02:07:11;;;;;;;8.90;6.05;;;;;;;;;;5046722;28;20699;-64
2023/09/16 02:09:38;;;;;;;6.85;5.03;;;;;;;;;;5043099;28;20802;-64
2023/09/16 02:12:04;;;;;;;5.53;4.75;;;;;;;;;;5039682;28;20370;-64
2023/09/16 02:14:30;;;;;;;7.57;5.25;;;;;;;;;;5040703;28;20416;-63
2023/09/16 02:16:56;;;;;;;7.50;4.90;;;;;;;;;;5044090;28;20044;-64
2023/09/16 02:19:23;;;;;;;6.57;4.60;;;;;;;;;;5049245;28;20071;-63
2023/09/16 02:21:49;;;;;;;5.97;4.63;;;;;;;;;;5046514;28;20119;-63
2023/09/16 02:24:15;;;;;;;6.57;5.35;;;;;;;;;;5044190;28;20112;-64
2023/09/16 02:26:41;;;;;;;8.48;5.80;;;;;;;;;;5053107;28;20043;-63
2023/09/16 02:29:07;;;;;;;6.80;5.22;;;;;;;;;;5046540;28;20068;-64
2023/09/16 02:31:33;;;;;;;6.20;4.85;;;;;;;;;;5056646;28;20067;-64
2023/09/16 02:34:00;;;;;;;5.65;4.63;;;;;;;;;;5046172;28;20076;-64
2023/09/16 02:36:27;;;;;;;7.18;5.10;;;;;;;;;;5041794;28;20438;-64
2023/09/16 02:38:53;;;;;;;5.75;5.03;;;;;;;;;;5056360;28;20051;-63
2023/09/16 02:41:19;;;;;;;11.98;5.70;;;;;;;;;;5049567;28;20037;-63
2023/09/16 02:43:46;;;;;;;6.97;6.15;;;;;;;;;;5062900;28;20132;-62
2023/09/16 02:46:13;;;;;;;6.20;5.57;;;;;;;;;;5053815;28;20087;-63
2023/09/16 02:48:39;;;;;;;6.18;4.93;;;;;;;;;;5050325;28;20267;-63
2023/09/16 02:51:09;;;;;;;6.80;4.97;;;;;;;;;;5049051;28;20201;-63
2023/09/16 02:53:36;;;;;;;6.45;4.93;;;;;;;;;;5051765;28;20037;-63
2023/09/16 02:56:03;;;;;;;6.90;4.40;;;;;;;;;;5051641;28;20055;-63
2023/09/16 02:58:29;;;;;;;8.43;4.68;;;;;;;;;;5057803;28;20083;-63
2023/09/16 03:00:55;;;;;;;6.45;4.47;;;;;;;;;;5058185;28;20064;-63
2023/09/16 03:03:21;;;;;;;6.75;5.60;;;;;;;;;;5055916;28;20059;-63
2023/09/16 03:05:48;;;;;;;5.65;4.68;;;;;;;;;;5055574;28;20320;-63
2023/09/16 03:08:14;;;;;;;6.35;4.57;;;;;;;;;;5054119;28;20036;-63
2023/09/16 03:10:40;;;;;;;7.03;5.03;;;;;;;;;;5058507;28;20570;-63
2023/09/16 03:13:06;;;;;;;6.60;4.43;;;;;;;;;;5054844;28;20282;-63
2023/09/16 03:15:35;;;;;;;6.05;4.60;;;;;;;;;;5053873;28;20048;-63
2023/09/16 03:18:02;;;;;;;7.22;4.93;;;;;;;;;;5054779;28;20593;-63
2023/09/16 03:20:28;;;;;;;7.68;5.07;;;;;;;;;;5059633;28;20036;-63
2023/09/16 03:22:54;;;;;;;6.35;4.93;;;;;;;;;;5058819;28;20273;-63
2023/09/16 03:25:20;;;;;;;6.13;4.50;;;;;;;;;;5061752;28;20450;-64
2023/09/16 03:27:46;;;;;;;5.82;4.15;;;;;;;;;;5060803;28;20055;-64
2023/09/16 03:30:16;;;;;;;5.93;4.72;;;;;;;;;;5058172;28;20090;-64
2023/09/16 03:32:42;;;;;;;6.30;4.38;;;;;;;;;;5053772;28;20040;-64
2023/09/16 03:35:08;;;;;;;7.50;4.70;;;;;;;;;;5050661;28;20076;-64
2023/09/16 03:37:34;;;;;;;8.05;5.25;;;;;;;;;;5047164;28;20036;-63
2023/09/16 03:40:00;;;;;;;6.45;4.85;;;;;;;;;;5058688;28;20322;-62
2023/09/16 03:42:26;;;;;;;5.65;5.05;;;;;;;;;;5051348;28;20496;-62
2023/09/16 03:44:52;;;;;;;7.72;5.32;;;;;;;;;;5050067;28;20073;-63
2023/09/16 03:47:19;;;;;;;5.40;4.28;;;;;;;;;;5050054;28;20497;-63
2023/09/16 03:49:45;;;;;;;6.15;4.90;;;;;;;;;;5051947;28;20302;-63
2023/09/16 03:52:11;;;;;;;4.78;4.28;;;;;;;;;;5061106;28;20125;-63
2023/09/16 03:54:37;;;;;;;6.18;5.15;;;;;;;;;;5036289;28;20482;-63
2023/09/16 03:57:03;;;;;;;5.15;4.07;;;;;;;;;;5057919;28;20090;-63
2023/09/16 03:59:29;;;;;;;6.20;4.63;;;;;;;;;;5032323;28;20050;-63
2023/09/16 04:01:56;;;;;;;5.03;4.30;;;;;;;;;;5061957;28;20076;-63
2023/09/16 04:04:22;;;;;;;5.15;4.18;;;;;;;;;;5055479;28;20055;-64
2023/09/16 04:06:48;;;;;;;7.57;5.43;;;;;;;;;;5053734;28;20044;-63
2023/09/16 04:09:16;;;;;;;6.05;4.50;;;;;;;;;;5053298;28;20079;-63
2023/09/16 04:11:42;;;;;;;6.13;4.57;;;;;;;;;;5059680;28;20036;-63
2023/09/16 04:14:08;;;;;;;6.60;4.38;;;;;;;;;;5054304;28;20492;-63
2023/09/16 04:16:34;;;;;;;7.15;5.03;;;;;;;;;;5056948;28;20047;-63
2023/09/16 04:19:02;;;;;;;6.22;4.50;;;;;;;;;;5057512;28;20092;-61
2023/09/16 04:21:28;;;;;;;5.40;4.50;;;;;;;;;;5051886;28;20578;-63
2023/09/16 04:23:54;;;;;;;6.53;5.20;;;;;;;;;;5053073;28;20033;-64
2023/09/16 04:26:20;;;;;;;6.65;4.28;;;;;;;;;;5058395;28;20071;-63
2023/09/16 04:28:46;;;;;;;4.78;3.95;;;;;;;;;;5056623;28;20537;-63
2023/09/16 04:31:12;;;;;;;7.63;5.07;;;;;;;;;;5050078;28;20057;-63
2023/09/16 04:33:39;;;;;;;6.82;4.30;;;;;;;;;;5055810;28;20093;-63
2023/09/16 04:36:05;;;;;;;4.85;4.18;;;;;;;;;;5059063;28;20214;-62
2023/09/16 04:38:31;;;;;;;6.45;5.00;;;;;;;;;;5046943;28;20041;-63
2023/09/16 04:40:57;;;;;;;5.18;4.57;;;;;;;;;;5063242;28;20036;-63
2023/09/16 04:43:25;;;;;;;5.05;3.95;;;;;;;;;;5052729;28;20041;-63
2023/09/16 04:45:51;;;;;;;8.68;4.78;;;;;;;;;;5057947;28;20123;-63
2023/09/16 04:48:18;;;;;;;5.88;4.75;;;;;;;;;;5054873;28;20658;-62
2023/09/16 04:50:48;;;;;;;5.30;4.78;;;;;;;;;;5053700;28;20634;-62
2023/09/16 04:53:14;;;;;;;5.65;4.53;;;;;;;;;;5052120;28;20280;-63
2023/09/16 04:55:43;;;;;;;5.63;4.57;;;;;;;;;;5050700;28;20573;-62
2023/09/16 04:58:09;;;;;;;5.68;4.68;;;;;;;;;;5048019;28;20155;-62
2023/09/16 05:00:37;;;;;;;10.45;4.90;;;;;;;;;;5047023;28;20110;-62
2023/09/16 05:03:04;;;;;;;5.20;3.83;;;;;;;;;;5046923;28;20127;-63
2023/09/16 05:05:30;;;;;;;5.95;4.18;;;;;;;;;;5056548;28;20135;-62
2023/09/16 05:07:56;;;;;;;5.22;4.72;;;;;;;;;;5048613;28;20048;-63
2023/09/16 05:10:22;;;;;;;5.97;4.93;;;;;;;;;;5055976;28;20048;-63
2023/09/16 05:12:48;;;;;;;7.28;4.45;;;;;;;;;;5053250;28;20074;-63
2023/09/16 05:15:15;;;;;;;5.07;4.43;;;;;;;;;;5045280;28;20200;-63
2023/09/16 05:17:41;;;;;;;5.40;4.60;;;;;;;;;;5050897;28;20067;-63
2023/09/16 05:20:10;;;;;;;5.20;4.18;;;;;;;;;;5054500;28;20562;-63
2023/09/16 05:22:38;;;;;;;6.82;4.55;;;;;;;;;;5060956;28;20281;-63
2023/09/16 05:25:05;;;;;;;5.65;4.45;;;;;;;;;;5062837;28;20097;-63
2023/09/16 05:27:33;;;;;;;7.65;4.60;;;;;;;;;;5053373;28;20096;-63
2023/09/16 05:30:01;;;;;;;8.02;4.72;;;;;;;;;;5055386;28;20035;-63
2023/09/16 05:32:28;;;;;;;6.30;4.72;;;;;;;;;;5048682;28;20048;-63
2023/09/16 05:34:54;;;;;;;5.45;4.47;;;;;;;;;;5053194;28;20075;-63
2023/09/16 05:37:20;;;;;;;5.95;4.53;;;;;;;;;;5035597;28;20528;-64
2023/09/16 05:39:46;;;;;;;4.97;4.40;;;;;;;;;;5047938;28;20085;-62
2023/09/16 05:42:12;;;;;;;8.18;4.53;;;;;;;;;;5042832;28;20354;-63
2023/09/16 05:44:38;;;;;;;6.15;4.53;;;;;;;;;;5047970;28;20123;-64
2023/09/16 05:47:05;;;;;;;6.72;4.45;;;;;;;;;;5041183;28;20052;-63
2023/09/16 05:49:31;;;;;;;5.78;4.45;;;;;;;;;;5052978;28;20048;-63
2023/09/16 05:51:57;;;;;;;6.35;4.35;;;;;;;;;;5042337;28;20041;-62
2023/09/16 05:54:23;;;;;;;5.63;4.15;;;;;;;;;;5045825;28;20203;-62
2023/09/16 05:56:49;;;;;;;5.50;4.30;;;;;;;;;;5044647;28;20495;-63
2023/09/16 05:59:16;;;;;;;5.35;3.50;;;;;;;;;;5050454;28;20044;-64
2023/09/16 06:01:42;;;;;;;5.85;4.60;;;;;;;;;;5045398;28;20214;-63
2023/09/16 06:04:08;;;;;;;5.70;3.80;;;;;;;;;;5042023;28;20055;-63
2023/09/16 06:06:35;;;;;;;5.47;3.90;;;;;;;;;;5042251;28;20196;-63
2023/09/16 06:09:03;;;;;;;4.97;3.60;;;;;;;;;;5044053;28;20037;-63
2023/09/16 06:11:29;;;;;;;7.07;4.72;;;;;;;;;;5049693;28;20689;-62
2023/09/16 06:13:56;;;;;;;5.55;4.35;;;;;;;;;;5054694;28;20101;-63
2023/09/16 06:16:22;;;;;;;5.40;4.78;;;;;;;;;;5044554;28;20566;-62
2023/09/16 06:18:48;;;;;;;6.05;3.63;;;;;;;;;;5052986;28;20093;-64
2023/09/16 06:21:18;;;;;;;6.80;4.45;;;;;;;;;;5044915;28;20135;-63
2023/09/16 06:23:44;;;;;;;5.47;3.92;;;;;;;;;;5053179;28;20119;-62
2023/09/16 06:26:11;;;;;;;3.75;3.17;;;;;;;;;;5046668;28;20199;-63
2023/09/16 06:28:41;;;;;;;4.55;3.55;;;;;;;;;;5049617;28;20051;-62
2023/09/16 06:31:07;;;;;;;4.75;3.97;;;;;;;;;;5043728;28;20048;-63
2023/09/16 06:33:34;;;;;;;4.85;3.65;;;;;;;;;;5048933;28;20095;-63
2023/09/16 06:36:00;;;;;;;5.70;3.53;;;;;;;;;;5047807;28;20037;-63
2023/09/16 06:38:27;;;;;;;4.45;2.97;;;;;;;;;;5037561;28;20699;-63
2023/09/16 06:40:53;;;;;;;4.75;2.88;;;;;;;;;;5040729;28;20037;-63
2023/09/16 06:43:19;;;;;;;4.00;2.92;;;;;;;;;;5042106;28;20048;-63
2023/09/16 06:45:46;;;;;;;4.38;2.92;;;;;;;;;;5050380;28;20116;-63
2023/09/16 06:48:12;;;;;;;4.45;2.95;;;;;;;;;;5040274;28;20228;-63
2023/09/16 06:50:39;;;;;;;4.93;3.33;;;;;;;;;;5022290;28;20052;-63
2023/09/16 06:53:05;;;;;;;5.15;3.10;;;;;;;;;;5042861;28;20128;-63
2023/09/16 06:55:32;;;;;;;4.25;2.80;;;;;;;;;;5036221;28;20041;-63
2023/09/16 06:57:58;;;;;;;4.55;3.35;;;;;;;;;;5048371;28;20044;-63
2023/09/16 07:00:24;;;;;;;4.43;2.80;;;;;;;;;;5041621;28;20047;-62
2023/09/16 07:02:52;;;;;;;4.75;2.72;;;;;;;;;;5043186;28;20302;-63
2023/09/16 07:05:18;;;;;;;4.22;2.70;;;;;;;;;;5042233;28;20450;-63
2023/09/16 07:07:44;;;;;;;5.38;2.97;;;;;;;;;;5050866;28;20043;-62
2023/09/16 07:10:10;;;;;;;3.67;3.00;;;;;;;;;;5050863;28;20115;-63
2023/09/16 07:12:37;;;;;;;3.58;2.50;;;;;;;;;;5050094;28;20822;-63
2023/09/16 07:15:03;;;;;;;3.40;2.38;;;;;;;;;;5048528;28;20291;-64
2023/09/16 07:17:32;;;;;;;8.60;2.85;;;;;;;;;;5047860;28;20135;-64
2023/09/16 07:19:58;;;;;;;3.30;2.45;;;;;;;;;;5049409;28;20040;-63
2023/09/16 07:22:25;;;;;;;4.43;2.67;;;;;;;;;;5053562;28;20414;-63
2023/09/16 07:24:51;;;;;;;4.72;2.63;;;;;;;;;;5057352;28;20449;-64
2023/09/16 07:27:17;;;;;;;3.70;2.72;;;;;;;;;;5050954;28;20047;-63
2023/09/16 07:29:43;;;;;;;5.93;2.67;;;;;;;;;;5055154;28;20039;-65
2023/09/16 07:32:10;;;;;;;3.38;2.72;;;;;;;;;;5047991;28;20056;-63
2023/09/16 07:34:36;;;;;;;3.83;2.40;;;;;;;;;;5051111;28;20039;-64
2023/09/16 07:37:03;;;;;;;4.80;3.03;;;;;;;;;;5036850;28;20146;-63
2023/09/16 07:39:30;;;;;;;4.45;3.33;;;;;;;;;;5041465;28;20287;-63
2023/09/16 07:41:56;;;;;;;3.50;2.70;;;;;;;;;;5040644;28;20035;-63
2023/09/16 07:44:22;;;;;;;3.85;3.03;;;;;;;;;;5052991;28;20603;-63
2023/09/16 07:46:48;;;;;;;3.22;2.55;;;;;;;;;;5047911;28;20076;-62
2023/09/16 07:49:15;;;;;;;4.38;2.60;;;;;;;;;;5053928;28;20439;-63
2023/09/16 07:51:45;;;;;;;3.65;2.30;;;;;;;;;;5051881;28;20070;-63
2023/09/16 07:54:11;;;;;;;4.80;2.60;;;;;;;;;;5050377;28;20191;-62
2023/09/16 07:56:37;;;;;;;4.15;2.55;;;;;;;;;;5056376;28;20102;-62
2023/09/16 07:59:04;;;;;;;4.88;2.53;;;;;;;;;;5053266;28;20039;-63
2023/09/16 08:01:30;;;;;;;4.43;2.45;;;;;;;;;;5043541;28;20539;-63
2023/09/16 08:03:57;;;;;;;3.83;2.13;;;;;;;;;;5048335;28;20640;-62
2023/09/16 08:06:23;;;;;;;3.38;2.83;;;;;;;;;;5039489;28;20341;-62
2023/09/16 08:08:49;;;;;;;3.55;2.47;;;;;;;;;;5053386;28;20059;-63
2023/09/16 08:11:17;;;;;;;4.03;2.70;;;;;;;;;;5050192;28;20251;-63
2023/09/16 08:13:43;;;;;;;3.83;2.35;;;;;;;;;;5048037;28;20370;-63
2023/09/16 08:16:09;;;;;;;3.95;2.60;;;;;;;;;;5044669;28;20315;-62
2023/09/16 08:18:35;;;;;;;4.80;2.88;;;;;;;;;;5057240;28;20324;-62
2023/09/16 08:21:02;;;;;;;4.00;2.55;;;;;;;;;;5054189;28;20236;-62
2023/09/16 08:23:28;;;;;;;4.07;2.63;;;;;;;;;;5058483;28;20105;-63
2023/09/16 08:25:54;;;;;;;4.00;2.95;;;;;;;;;;5057918;28;20041;-63
2023/09/16 08:28:20;;;;;;;3.25;2.53;;;;;;;;;;5059958;28;20107;-63
2023/09/16 08:30:47;;;;;;;4.55;2.88;;;;;;;;;;5059199;28;20142;-63
2023/09/16 08:33:13;;;;;;;3.42;2.65;;;;;;;;;;5054633;28;20100;-63
2023/09/16 08:35:39;;;;;;;3.28;2.30;;;;;;;;;;5068066;28;20503;-62
2023/09/16 08:38:07;;;;;;;3.97;2.70;;;;;;;;;;5048010;28;20032;-63
2023/09/16 08:40:33;;;;;;;5.22;2.30;;;;;;;;;;5050533;28;20241;-63
2023/09/16 08:43:19;;;;;;;2.42;2.13;;;;;;;;;;5047001;28;20155;-62
2023/09/16 08:45:49;;;;;;;4.93;3.05;;;;;;;;;;5052151;28;20239;-63
2023/09/16 08:48:19;;;;;;;2.97;2.45;;;;;;;;;;5056845;28;20551;-63
2023/09/16 08:50:45;;;;;;;4.53;3.13;;;;;;;;;;5060119;28;20270;-63
2023/09/16 08:53:12;;;;;;;4.90;2.78;;;;;;;;;;5054108;28;20045;-63
2023/09/16 08:55:38;;;;;;;5.40;2.50;;;;;;;;;;5057076;28;20526;-63
2023/09/16 08:58:09;;;;;;;4.60;2.40;;;;;;;;;;5055143;28;20627;-63
2023/09/16 09:00:39;;;;;;;4.55;2.65;;;;;;;;;;5055492;28;20055;-63
2023/09/16 09:03:06;;;;;;;3.17;2.00;;;;;;;;;;5049557;28;20704;-65
2023/09/16 09:05:33;;;;;;;4.43;1.83;;;;;;;;;;5048550;28;20297;-63
2023/09/16 09:07:59;;;;;;;4.22;2.88;;;;;;;;;;5048174;28;20179;-63
2023/09/16 09:10:25;;;;;;;2.95;2.35;;;;;;;;;;5050344;28;20495;-63
2023/09/16 09:12:51;;;;;;;3.67;2.45;;;;;;;;;;5058632;28;20036;-63
2023/09/16 09:15:18;;;;;;;5.35;2.65;;;;;;;;;;5052151;28;20667;-63
2023/09/16 09:17:51;;;;;;;3.72;2.88;;;;;;;;;;5051864;28;20401;-63
2023/09/16 09:20:21;;;;;;;3.42;2.22;;;;;;;;;;5052727;28;20566;-63
2023/09/16 09:22:49;;;;;;;3.55;2.38;;;;;;;;;;5051077;28;20262;-64
2023/09/16 09:25:15;;;;;;;2.55;2.10;;;;;;;;;;5056404;28;20245;-63
2023/09/16 09:27:41;;;;;;;3.40;2.13;;;;;;;;;;5053541;28;20533;-63
2023/09/16 09:30:07;;;;;;;2.92;2.30;;;;;;;;;;5050644;28;20037;-63
2023/09/16 09:32:33;;;;;;;3.10;2.03;;;;;;;;;;5054578;28;20118;-63
2023/09/16 09:35:06;;;;;;;4.15;2.38;;;;;;;;;;5052722;28;20566;-64
2023/09/16 09:37:33;;;;;;;3.67;2.70;;;;;;;;;;5063470;28;20148;-64
2023/09/16 09:40:05;;;;;;;2.97;2.20;;;;;;;;;;5050384;28;20477;-64
2023/09/16 09:42:31;;;;;;;3.58;2.80;;;29.70;69.20;;;;;;5055720;28;20280;-63
2023/09/16 09:45:03;;;;;;;3.35;2.33;;;;;;;;;;5051330;28;20087;-64
2023/09/16 09:47:30;;;;;;;4.65;2.30;;;22.60;87.20;;;;;;5046901;28;20076;-63
2023/09/16 09:49:56;;;;;;;3.22;2.45;;;;;;;;;;5045463;28;20493;-64
2023/09/16 09:52:22;;;;;;;3.33;2.47;;;;;;;;;;5048150;28;20184;-63
2023/09/16 09:54:52;;;;;;;3.63;2.00;;;;;;;;;;5052982;28;20289;-64
2023/09/16 09:57:18;;;;;;;5.70;2.40;;;22.60;87.00;;;;;;5051539;28;20070;-63
2023/09/16 09:59:45;;;;;;;3.90;2.47;;;23.10;87.00;;;;;;5049829;28;20073;-65
2023/09/16 10:02:12;;;;;;;3.28;2.00;;;;;;;;;;5046704;28;20060;-64
2023/09/16 10:04:38;;;;;;;3.75;2.58;;;;;;;;;;5058688;28;20060;-63
2023/09/16 10:07:04;;;;;;;3.65;2.28;;;;;;;;;;5052815;28;20089;-63
2023/09/16 10:09:30;;;;;;;3.13;2.25;;;;;;;;;;5051343;28;20044;-64
2023/09/16 10:11:57;;;;;;;3.75;2.10;;;;;;;;;;5054606;28;20171;-64
2023/09/16 10:14:23;;;;;;;3.22;2.35;;;;;;;;;;5051420;28;20044;-64
2023/09/16 10:16:49;;;;;;;3.03;1.95;;;;;;;;;;5049321;28;20408;-64
2023/09/16 10:19:16;;;;;;;2.85;2.35;;;;;;;;;;5064576;28;20704;-64
2023/09/16 10:21:42;;;;;;;3.45;1.80;;;;;;;;;;5052019;28;20036;-64
2023/09/16 10:24:08;;;;;;;3.75;2.15;;;23.30;87.00;;;;;;5045716;28;21060;-64
2023/09/16 10:26:35;;;;;;;4.25;2.20;;;24.60;86.10;;;;;;5049971;28;20120;-64
2023/09/16 10:29:02;;;;;;;2.40;1.90;;;24.60;86.30;;;;;;5054843;28;20192;-64
2023/09/16 10:31:28;;;;;;;3.65;2.65;;;24.70;86.80;;;;;;5054795;28;20488;-63
2023/09/16 10:33:56;;;;;;;3.47;2.47;;;24.90;86.20;;;;;;5056090;28;20604;-64
2023/09/16 10:36:22;;;;;;;3.20;2.20;;;;;;;;;;5047079;28;20412;-65
2023/09/16 10:38:50;;;;;;;2.88;2.20;;;;;;;;;;5062034;28;20107;-64
2023/09/16 10:41:16;;;;;;;3.22;2.10;;;;;;;;;;5053316;28;20153;-64
2023/09/16 10:43:44;;;;;;;4.65;2.70;;;;;;;;;;5041975;28;20175;-64
2023/09/16 10:46:11;;;;;;;2.83;1.92;;;;;;;;;;5042537;28;20443;-64
2023/09/16 10:48:37;;;;;;;4.18;2.72;;;25.00;86.10;;;;;;5059425;28;20354;-64
2023/09/16 10:51:08;;;;;;;2.88;2.17;;;25.70;85.50;;;;;;5050677;28;20444;-64
2023/09/16 10:53:39;;;;;;;2.97;2.00;;;;;;;;;;5060424;28;20104;-65
2023/09/16 10:56:05;;;;;;;2.87;2.33;;;;;;;;;;5048871;28;20248;-65
2023/09/16 10:58:46;;;;;;;3.88;2.47;;;;;;;;;;5056073;28;20370;-64
2023/09/16 11:01:17;;;;;;;2.80;2.10;;;;;;;;;;5057630;28;20036;-65
2023/09/16 11:03:47;;;;;;;3.80;2.72;;;;;;;;;;5049415;28;20193;-64
2023/09/16 11:06:13;;;;;;;4.43;2.63;;;;;;;;;;5065038;28;20102;-66
2023/09/16 11:08:39;;;;;;;3.13;2.28;;;;;;;;;;5046673;28;20295;-64
2023/09/16 11:11:07;;;;;;;4.38;2.20;;;;;;;;;;5035065;28;20246;-65
2023/09/16 11:13:33;;;;;;;3.50;2.42;;;;;;;;;;5051179;28;20426;-65
2023/09/16 11:16:00;;;;;;;2.67;1.77;;;25.80;85.30;;;;;;5052605;28;20101;-64
2023/09/16 11:18:27;;;;;;;3.25;2.05;;;;;;;;;;5051395;28;20230;-64
2023/09/16 11:20:54;;;;;;;4.40;2.10;;;27.10;84.10;;;;;;5054790;28;20036;-63
2023/09/16 11:23:21;;;;;;;2.67;2.00;;;27.20;83.70;;;;;;5052299;28;20205;-63
2023/09/16 11:25:47;;;;;;;3.58;2.35;;;27.30;83.50;;;;;;5061482;28;20036;-64
2023/09/16 11:28:22;;;;;;;3.10;2.30;;;27.40;83.30;;;;;;5045037;28;20201;-63
2023/09/16 11:30:56;;;;;;;3.28;2.10;;;27.50;83.10;;;;;;5061048;28;20119;-65
2023/09/16 11:33:25;;;;;;;3.65;1.90;;;27.70;83.00;;;;;;5048226;28;20032;-65
2023/09/16 11:36:14;;;;;;;2.38;1.77;;;;;;;;;;5052063;28;20075;-66
2023/09/16 11:38:52;;;;;;;2.63;2.10;;;;;;;;;;5050484;28;20041;-64
2023/09/16 11:41:18;;;;;;;5.82;2.25;;;;;;;;;;5051536;28;20230;-65
2023/09/16 11:43:44;;;;;;;4.40;2.60;;;;;;;;;;5039777;28;20029;-65
2023/09/16 11:46:12;;;;;;;3.13;2.17;;;;;;;;;;5041623;28;20053;-64
2023/09/16 11:49:00;;;;;;;10.25;2.58;;;27.80;82.80;;;;;;5049806;28;20060;-64
2023/09/16 11:51:26;;;;;;;2.28;1.63;;;28.60;82.30;;;;;;5051916;28;20121;-64
2023/09/16 11:53:53;;;;;;;3.28;1.85;;;28.60;81.50;;;;;;5051890;28;20037;-64
2023/09/16 11:56:23;;;;;;;3.33;1.95;;;28.70;81.20;;;;;;5048656;28;20049;-66
2023/09/16 11:58:49;;;;;;;2.50;1.80;;;28.80;81.00;;;;;;5044437;28;20407;-65
2023/09/16 12:01:28;;;;;;;4.97;2.15;;;28.90;80.80;;;;;;5049053;28;20149;-64
2023/09/16 12:03:56;;;;;;;7.45;2.15;;;28.80;80.30;;;;;;5039005;28;20148;-64
2023/09/16 12:06:25;;;;;;;2.22;1.80;;;28.90;80.30;;;;;;5043865;28;20238;-67
2023/09/16 12:08:55;;;;;;;2.15;1.50;;;28.90;80.10;;;;;;5046269;28;20041;-65
2023/09/16 12:11:22;;;;;;;3.65;1.90;;;28.90;80.50;;;;;;5047230;28;20117;-64
2023/09/16 12:13:49;;;;;;;5.15;2.92;;;29.00;79.90;;;;;;5047810;28;20036;-64
2023/09/16 12:16:15;;;;;;;4.57;2.80;;;28.70;76.00;;;;;;5054704;28;20096;-64
2023/09/16 12:18:44;;;;;;;5.35;3.92;;;28.40;73.60;;;;;;5051502;28;20126;-64
2023/09/16 12:21:12;;;;;;;4.65;3.60;;;28.00;71.20;;;;;;5059691;28;20029;-63
2023/09/16 12:23:42;;;;;;;4.45;3.08;;;27.60;71.20;;;;;;5047437;28;20111;-64
2023/09/16 12:26:09;;;;;;;4.03;3.03;;;;;;;;;;5048029;28;20095;-64
2023/09/16 12:28:35;;;;;;;4.50;3.28;;;;;;;;;;5054523;28;20167;-64
2023/09/16 12:31:01;;;;;;;5.20;3.25;;;;;;;;;;5045052;28;20109;-64
2023/09/16 12:33:48;;;;;;;4.82;2.90;;;;;;;;;;5053233;28;20057;-64
2023/09/16 12:36:15;;;;;;;4.32;3.03;;;;;;;;;;5046726;28;20282;-65
2023/09/16 12:38:42;;;;;;;5.57;3.30;;;;;;;;;;5051473;28;20247;-65
2023/09/16 12:41:09;;;;;;;4.28;3.17;;;;;;;;;;5046551;28;20449;-64
2023/09/16 12:43:35;;;;;;;6.85;3.78;;;;;;;;;;5045655;28;20215;-64
2023/09/16 12:46:02;;;;;;;5.50;3.05;;;;;;;;;;5065737;28;20040;-64
2023/09/16 12:48:29;;;;;;;7.25;3.35;;;;;;;;;;5054980;28;20135;-64
2023/09/16 12:50:55;;;;;;;3.83;2.50;;;;;;;;;;5047907;28;20310;-64
2023/09/16 12:53:21;;;;;;;4.50;2.92;;;;;;;;;;5054619;28;20040;-64
2023/09/16 12:55:48;;;;;;;4.00;2.75;;;;;;;;;;5058310;28;20128;-64
2023/09/16 12:58:16;;;;;;;6.05;3.10;;;;;;;;;;5059141;28;20758;-64
2023/09/16 13:00:42;;;;;;;4.28;2.85;;;;;;;;;;5072573;28;20036;-64
2023/09/16 13:03:08;;;;;;;6.32;2.38;;;;;;;;;;5061973;28;20181;-64
2023/09/16 13:05:35;;;;;;;7.28;3.72;;;;;;;;;;5053721;28;20317;-64
2023/09/16 13:08:02;;;;;;;4.57;2.85;;;;;;;;;;5063988;28;20277;-64
2023/09/16 13:10:29;;;;;;;6.82;3.38;;;;;;;;;;5056418;28;20055;-64
2023/09/16 13:12:58;;;;;;;7.43;3.22;;;;;;;;;;5060283;28;20080;-65
2023/09/16 13:15:24;;;;;;;7.28;3.30;;;;;;;;;;5050096;28;20496;-64
2023/09/16 13:17:57;;;;;;;4.28;2.88;;;;;;;;;;5055762;28;20036;-63
2023/09/16 13:20:27;;;;;;;9.32;3.47;;;;;;;;;;5063921;28;20269;-65
2023/09/16 13:22:57;;;;;;;5.60;3.22;;;;;;;;;;5056633;28;20477;-65
2023/09/16 13:25:43;;;;;;;5.78;3.05;;;;;;;;;;5059270;28;20044;-64
2023/09/16 13:28:12;;;;;;;5.53;3.53;;;;;;;;;;5060857;28;20178;-65
2023/09/16 13:30:40;;;;;;;4.90;3.50;;;;;;;;;;5065690;28;20066;-65
2023/09/16 13:33:07;;;;;;;6.15;3.40;;;;;;;;;;5055684;28;20416;-65
2023/09/16 13:35:36;;;;;;;5.45;3.40;;;;;;;;;;5056071;28;20247;-65
2023/09/16 13:38:05;;;;;;;6.30;3.60;;;;;;;;;;5046739;28;20108;-65
2023/09/16 13:40:31;;;;;;;5.18;3.67;;;;;;;;;;5048583;28;20089;-65
2023/09/16 13:42:58;;;;;;;9.55;4.57;;;;;;;;;;5049920;28;20048;-64
2023/09/16 13:45:24;;;;;;;6.55;3.42;;;;;;;;;;5058735;28;20449;-65
2023/09/16 13:48:10;;;;;;;8.57;4.70;;;;;;;;;;5053122;28;20051;-64
2023/09/16 13:50:41;;;;;;;4.70;4.13;;;;;;;;;;5049894;28;20111;-65
2023/09/16 13:53:07;;;;;;;10.35;3.67;;;;;;;;;;5062934;28;20457;-65
2023/09/16 13:55:33;;;;;;;5.65;3.70;;;;;;;;;;5057056;28;20064;-65
2023/09/16 13:58:00;;;;;;;7.95;3.97;;;;;;;;;;5052082;28;20045;-65
2023/09/16 14:00:29;;;;;;;5.68;4.10;;;;;;;;;;5043030;28;20503;-65
2023/09/16 14:02:55;;;;;;;6.55;5.03;;;;;;;;;;5056596;28;20186;-65
2023/09/16 14:05:21;;;;;;;6.50;4.20;;;;;;;;;;5036771;28;20067;-65
2023/09/16 14:07:48;;;;;;;6.05;4.50;;;;;;;;;;5051284;28;20076;-64
2023/09/16 14:10:15;;;;;;;7.70;4.40;;;;;;;;;;5042849;28;20516;-63
2023/09/16 14:12:41;;;;;;;10.35;5.03;;;;;;;;;;5065340;28;20146;-66
2023/09/16 14:15:07;;;;;;;5.43;4.15;;;;;;;;;;5044623;28;20172;-64
2023/09/16 14:17:33;;;;;;;7.60;4.78;;;;;;;;;;5053739;28;20036;-64
2023/09/16 14:19:59;;;;;;;6.28;4.55;;;;;;;;;;5050013;28;20449;-63
2023/09/16 14:22:29;;;;;;;6.30;4.40;;;;;;;;;;5059438;28;20187;-64
2023/09/16 14:24:58;;;;;;;7.22;4.40;;;;;;;;;;5033848;28;20166;-64
2023/09/16 14:27:24;;;;;;;7.97;4.47;;;;;;;;;;5050497;28;20037;-64
2023/09/16 14:29:51;;;;;;;9.18;3.95;;;;;;;;;;5054432;28;20233;-64
2023/09/16 14:32:17;;;;;;;6.13;4.38;;;;;;;;;;5055307;28;20571;-64